Time,TemperatureF,DewpointF,PressureIn,WindDirection,WindDirectionDegrees,WindSpeedMPH,WindSpeedGustMPH,Humidity,HourlyPrecipIn,Conditions,Clouds,dailyrainin,SoftwareType,DateUTC
2013-04-01 00:00:00,36.0,32.2,29.78,North,32767,-999.0,0.0,86,0.00,,,0.04,Wunderground v.1.15,2013-04-01 04:00:00,
2013-04-01 00:05:00,35.9,31.8,29.78,North,32767,-999.0,0.0,85,0.00,,,0.00,Wunderground v.1.15,2013-04-01 04:05:00,
2013-04-01 00:15:00,35.9,31.8,29.78,North,32767,-999.0,0.0,85,0.00,,,0.00,Wunderground v.1.15,2013-04-01 04:15:00,
2013-04-01 00:20:00,35.9,31.5,29.78,North,32767,-999.0,0.0,84,0.00,,,0.00,Wunderground v.1.15,2013-04-01 04:20:00,
2013-04-01 00:30:00,35.8,31.1,29.78,North,32767,-999.0,0.0,83,0.00,,,0.00,Wunderground v.1.15,2013-04-01 04:30:00,
2013-04-01 00:35:00,35.9,30.6,29.78,North,32767,-999.0,0.0,81,0.00,,,0.00,Wunderground v.1.15,2013-04-01 04:35:00,
2013-04-01 00:45:00,32.7,28.4,29.79,North,32767,-999.0,0.0,84,0.00,,,0.00,Wunderground v.1.15,2013-04-01 04:45:00,
2013-04-01 00:55:00,32.4,27.2,29.79,North,32767,-999.0,0.0,81,0.00,,,0.00,Wunderground v.1.15,2013-04-01 04:55:00,
2013-04-01 01:05:00,32.2,26.7,29.80,North,32767,-999.0,0.0,80,0.00,,,0.00,Wunderground v.1.15,2013-04-01 05:05:00,
2013-04-01 01:10:00,32.1,26.6,29.81,North,32767,-999.0,0.0,80,0.00,,,0.00,Wunderground v.1.15,2013-04-01 05:10:00,
2013-04-01 01:15:00,32.0,26.5,29.81,North,32767,-999.0,0.0,80,0.00,,,0.00,Wunderground v.1.15,2013-04-01 05:15:00,
2013-04-01 01:20:00,31.8,26.3,29.81,North,32767,-999.0,0.0,80,0.00,,,0.00,Wunderground v.1.15,2013-04-01 05:20:00,
2013-04-01 01:30:00,31.6,26.1,29.81,North,32767,-999.0,0.0,80,0.00,,,0.00,Wunderground v.1.15,2013-04-01 05:30:00,
2013-04-01 01:35:00,31.4,25.9,29.81,North,32767,-999.0,0.0,80,0.00,,,0.00,Wunderground v.1.15,2013-04-01 05:35:00,
2013-04-01 01:45:00,31.2,25.7,29.82,North,32767,-999.0,0.0,80,0.00,,,0.00,Wunderground v.1.15,2013-04-01 05:45:00,
2013-04-01 01:55:00,31.1,25.3,29.82,North,32767,-999.0,0.0,79,0.00,,,0.00,Wunderground v.1.15,2013-04-01 05:55:00,
2013-04-01 02:05:00,31.0,24.9,29.83,North,32767,-999.0,0.0,78,0.00,,,0.00,Wunderground v.1.15,2013-04-01 06:05:00,
2013-04-01 02:10:00,31.1,24.4,29.83,North,32767,-999.0,0.0,76,0.00,,,0.00,Wunderground v.1.15,2013-04-01 06:10:00,
2013-04-01 02:20:00,31.1,24.1,29.84,North,32767,-999.0,0.0,75,0.00,,,0.00,Wunderground v.1.15,2013-04-01 06:20:00,
2013-04-01 02:25:00,31.1,23.5,29.84,North,32767,-999.0,0.0,73,0.00,,,0.00,Wunderground v.1.15,2013-04-01 06:25:00,
2013-04-01 02:35:00,30.8,22.8,29.84,North,32767,-999.0,0.0,72,0.00,,,0.00,Wunderground v.1.15,2013-04-01 06:35:00,
2013-04-01 02:45:00,30.8,22.2,29.85,North,32767,-999.0,0.0,70,0.00,,,0.00,Wunderground v.1.15,2013-04-01 06:45:00,
2013-04-01 02:55:00,30.5,21.9,29.85,North,32767,-999.0,0.0,70,0.00,,,0.00,Wunderground v.1.15,2013-04-01 06:55:00,
2013-04-01 03:05:00,30.4,21.8,29.86,North,32767,-999.0,0.0,70,0.00,,,0.00,Wunderground v.1.15,2013-04-01 07:05:00,
2013-04-01 03:15:00,30.0,21.4,29.85,North,32767,-999.0,0.0,70,0.00,,,0.00,Wunderground v.1.15,2013-04-01 07:15:00,
2013-04-01 03:25:00,29.8,21.5,29.86,North,32767,-999.0,0.0,71,0.00,,,0.00,Wunderground v.1.15,2013-04-01 07:25:00,
2013-04-01 03:35:00,29.7,21.4,29.87,North,32767,-999.0,0.0,71,0.00,,,0.00,Wunderground v.1.15,2013-04-01 07:35:00,
2013-04-01 03:45:00,29.4,21.5,29.87,North,32767,-999.0,0.0,72,0.00,,,0.00,Wunderground v.1.15,2013-04-01 07:45:00,
2013-04-01 03:55:00,29.0,21.1,29.88,North,32767,-999.0,0.0,72,0.00,,,0.00,Wunderground v.1.15,2013-04-01 07:55:00,
2013-04-01 04:05:00,29.2,21.0,29.89,North,32767,-999.0,0.0,71,0.00,,,0.00,Wunderground v.1.15,2013-04-01 08:05:00,
2013-04-01 04:15:00,29.2,20.6,29.88,North,32767,-999.0,0.0,70,0.00,,,0.00,Wunderground v.1.15,2013-04-01 08:15:00,
2013-04-01 04:25:00,28.8,20.2,29.89,North,32767,-999.0,0.0,70,0.00,,,0.00,Wunderground v.1.15,2013-04-01 08:25:00,
2013-04-01 04:30:00,28.8,20.2,29.89,North,32767,-999.0,0.0,70,0.00,,,0.00,Wunderground v.1.15,2013-04-01 08:30:00,
2013-04-01 04:40:00,28.8,19.9,29.89,North,32767,-999.0,0.0,69,0.00,,,0.00,Wunderground v.1.15,2013-04-01 08:40:00,
2013-04-01 04:45:00,29.0,19.4,29.89,North,32767,-999.0,0.0,67,0.00,,,0.00,Wunderground v.1.15,2013-04-01 08:45:00,
2013-04-01 04:55:00,28.9,19.3,29.89,North,32767,-999.0,0.0,67,0.00,,,0.00,Wunderground v.1.15,2013-04-01 08:55:00,
2013-04-01 05:00:00,28.9,19.3,29.90,North,32767,-999.0,0.0,67,0.00,,,0.00,Wunderground v.1.15,2013-04-01 09:00:00,
2013-04-01 05:05:00,28.8,19.6,29.90,North,32767,-999.0,0.0,68,0.00,,,0.00,Wunderground v.1.15,2013-04-01 09:05:00,
2013-04-01 05:15:00,28.7,19.8,29.90,North,32767,-999.0,0.0,69,0.00,,,0.00,Wunderground v.1.15,2013-04-01 09:15:00,
2013-04-01 05:25:00,28.8,19.9,29.91,North,32767,-999.0,0.0,69,0.00,,,0.00,Wunderground v.1.15,2013-04-01 09:25:00,
2013-04-01 05:35:00,28.9,20.0,29.91,North,32767,-999.0,0.0,69,0.00,,,0.00,Wunderground v.1.15,2013-04-01 09:35:00,
2013-04-01 05:45:00,29.1,20.2,29.92,North,32767,-999.0,0.0,69,0.00,,,0.00,Wunderground v.1.15,2013-04-01 09:45:00,
2013-04-01 05:55:00,29.4,20.1,29.92,North,32767,-999.0,0.0,68,0.00,,,0.00,Wunderground v.1.15,2013-04-01 09:55:00,
2013-04-01 06:05:00,29.2,19.9,29.92,North,32767,-999.0,0.0,68,0.00,,,0.00,Wunderground v.1.15,2013-04-01 10:05:00,
2013-04-01 06:15:00,29.3,20.0,29.93,North,32767,-999.0,0.0,68,0.00,,,0.00,Wunderground v.1.15,2013-04-01 10:15:00,
2013-04-01 06:25:00,29.2,19.9,29.93,North,32767,-999.0,0.0,68,0.00,,,0.00,Wunderground v.1.15,2013-04-01 10:25:00,
2013-04-01 06:35:00,29.5,19.9,29.94,North,32767,-999.0,0.0,67,0.00,,,0.00,Wunderground v.1.15,2013-04-01 10:35:00,
2013-04-01 06:40:00,29.3,20.0,29.94,North,32767,-999.0,0.0,68,0.00,,,0.00,Wunderground v.1.15,2013-04-01 10:40:00,
2013-04-01 06:45:00,28.3,21.4,29.94,North,32767,-999.0,0.0,75,0.00,,,0.00,Wunderground v.1.15,2013-04-01 10:45:00,
2013-04-01 06:55:00,28.2,21.0,29.95,North,32767,-999.0,0.0,74,0.00,,,0.00,Wunderground v.1.15,2013-04-01 10:55:00,
2013-04-01 07:05:00,28.3,20.4,29.95,North,32767,-999.0,0.0,72,0.00,,,0.00,Wunderground v.1.15,2013-04-01 11:05:00,
2013-04-01 07:15:00,28.3,19.4,29.96,North,32767,-999.0,0.0,69,0.00,,,0.00,Wunderground v.1.15,2013-04-01 11:15:00,
2013-04-01 07:20:00,28.2,19.0,29.96,North,32767,-999.0,0.0,68,0.00,,,0.00,Wunderground v.1.15,2013-04-01 11:20:00,
2013-04-01 07:30:00,27.9,18.7,29.97,North,32767,-999.0,0.0,68,0.00,,,0.00,Wunderground v.1.15,2013-04-01 11:30:00,
2013-04-01 07:35:00,27.9,18.7,29.97,North,32767,-999.0,0.0,68,0.00,,,0.00,Wunderground v.1.15,2013-04-01 11:35:00,
2013-04-01 07:40:00,27.9,18.0,29.97,North,32767,-999.0,0.0,66,0.00,,,0.00,Wunderground v.1.15,2013-04-01 11:40:00,
2013-04-01 07:50:00,28.1,17.5,29.98,North,32767,-999.0,0.0,64,0.00,,,0.00,Wunderground v.1.15,2013-04-01 11:50:00,
2013-04-01 07:55:00,28.1,17.5,29.98,North,32767,-999.0,0.0,64,0.00,,,0.00,Wunderground v.1.15,2013-04-01 11:55:00,
2013-04-01 08:00:00,28.1,17.1,29.99,North,32767,-999.0,0.0,63,0.00,,,0.00,Wunderground v.1.15,2013-04-01 12:00:00,
2013-04-01 08:05:00,28.0,17.0,29.99,North,32767,-999.0,0.0,63,0.00,,,0.00,Wunderground v.1.15,2013-04-01 12:05:00,
2013-04-01 08:15:00,28.1,16.7,29.99,North,32767,-999.0,0.0,62,0.00,,,0.00,Wunderground v.1.15,2013-04-01 12:15:00,
2013-04-01 08:25:00,28.3,16.2,30.00,North,32767,-999.0,0.0,60,0.00,,,0.00,Wunderground v.1.15,2013-04-01 12:25:00,
2013-04-01 08:35:00,28.4,15.9,30.00,North,32767,-999.0,0.0,59,0.00,,,0.00,Wunderground v.1.15,2013-04-01 12:35:00,
2013-04-01 08:45:00,28.8,16.3,30.00,North,32767,-999.0,0.0,59,0.00,,,0.00,Wunderground v.1.15,2013-04-01 12:45:00,
2013-04-01 08:55:00,29.3,16.7,30.01,North,32767,-999.0,0.0,59,0.00,,,0.00,Wunderground v.1.15,2013-04-01 12:55:00,
2013-04-01 09:05:00,29.3,16.3,30.01,North,32767,-999.0,0.0,58,0.00,,,0.00,Wunderground v.1.15,2013-04-01 13:05:00,
2013-04-01 09:15:00,28.7,16.9,30.01,North,32767,-999.0,0.0,61,0.00,,,0.00,Wunderground v.1.15,2013-04-01 13:15:00,
2013-04-01 09:20:00,28.7,17.3,30.01,North,32767,-999.0,0.0,62,0.00,,,0.00,Wunderground v.1.15,2013-04-01 13:20:00,
2013-04-01 09:25:00,28.7,17.3,30.02,North,32767,-999.0,0.0,62,0.00,,,0.00,Wunderground v.1.15,2013-04-01 13:25:00,
2013-04-01 09:35:00,28.8,17.8,30.02,North,32767,-999.0,0.0,63,0.00,,,0.00,Wunderground v.1.15,2013-04-01 13:35:00,
2013-04-01 09:45:00,28.8,17.0,30.02,North,32767,-999.0,0.0,61,0.00,,,0.00,Wunderground v.1.15,2013-04-01 13:45:00,
2013-04-01 09:55:00,30.1,17.5,30.02,WNW,284,10.0,10.0,59,0.00,,,0.00,Wunderground v.1.15,2013-04-01 13:55:00,
2013-04-01 10:05:00,29.9,16.5,30.03,North,351,10.0,13.0,57,0.00,,,0.00,Wunderground v.1.15,2013-04-01 14:05:00,
2013-04-01 10:15:00,30.4,17.4,30.03,NW,317,8.0,13.0,58,0.00,,,0.00,Wunderground v.1.15,2013-04-01 14:15:00,
2013-04-01 10:25:00,30.0,17.0,30.03,WNW,294,12.0,15.0,58,0.00,,,0.00,Wunderground v.1.15,2013-04-01 14:25:00,
2013-04-01 10:35:00,30.0,17.0,30.04,WNW,298,11.0,11.0,58,0.00,,,0.00,Wunderground v.1.15,2013-04-01 14:35:00,
2013-04-01 10:45:00,29.7,17.9,30.04,NW,315,11.0,12.0,61,0.00,,,0.00,Wunderground v.1.15,2013-04-01 14:45:00,
2013-04-01 10:55:00,30.1,18.3,30.05,NNW,333,10.0,10.0,61,0.00,,,0.00,Wunderground v.1.15,2013-04-01 14:55:00,
2013-04-01 11:05:00,29.3,19.3,30.05,WNW,284,10.0,10.0,66,0.00,,,0.00,Wunderground v.1.15,2013-04-01 15:05:00,
2013-04-01 11:15:00,30.5,20.1,30.05,WNW,292,7.0,10.0,65,0.00,,,0.00,Wunderground v.1.15,2013-04-01 15:15:00,
2013-04-01 11:25:00,30.5,18.6,30.05,NW,311,8.0,16.0,61,0.00,,,0.00,Wunderground v.1.15,2013-04-01 15:25:00,
2013-04-01 11:30:00,30.2,18.4,30.05,WNW,293,12.0,14.0,61,0.00,,,0.00,Wunderground v.1.15,2013-04-01 15:30:00,
2013-04-01 11:40:00,30.8,16.9,30.06,WNW,298,14.0,14.0,56,0.00,,,0.00,Wunderground v.1.15,2013-04-01 15:40:00,
2013-04-01 11:45:00,30.7,17.3,30.06,WNW,288,13.0,14.0,57,0.00,,,0.00,Wunderground v.1.15,2013-04-01 15:45:00,
2013-04-01 11:55:00,31.1,17.2,30.06,West,281,12.0,14.0,56,0.00,,,0.00,Wunderground v.1.15,2013-04-01 15:55:00,
2013-04-01 12:05:00,30.4,19.3,30.06,NW,305,13.0,13.0,63,0.00,,,0.00,Wunderground v.1.15,2013-04-01 16:05:00,
2013-04-01 12:15:00,29.8,20.5,30.07,WNW,291,13.0,16.0,68,0.00,,,0.00,Wunderground v.1.15,2013-04-01 16:15:00,
2013-04-01 12:25:00,29.7,20.4,30.07,NW,304,12.0,14.0,68,0.00,,,0.00,Wunderground v.1.15,2013-04-01 16:25:00,
2013-04-01 12:35:00,30.1,20.1,30.07,WNW,300,12.0,12.0,66,0.00,,,0.00,Wunderground v.1.15,2013-04-01 16:35:00,
2013-04-01 12:45:00,29.6,18.5,30.07,West,261,14.0,14.0,63,0.00,,,0.00,Wunderground v.1.15,2013-04-01 16:45:00,
2013-04-01 12:55:00,30.6,18.7,30.07,WNW,288,12.0,12.0,61,0.00,,,0.00,Wunderground v.1.15,2013-04-01 16:55:00,
2013-04-01 13:05:00,30.7,17.7,30.07,WNW,296,15.0,22.0,58,0.00,,,0.00,Wunderground v.1.15,2013-04-01 17:05:00,
2013-04-01 13:15:00,30.8,18.5,30.07,WNW,288,15.0,15.0,60,0.00,,,0.00,Wunderground v.1.15,2013-04-01 17:15:00,
2013-04-01 13:20:00,30.9,18.6,30.08,WNW,300,15.0,15.0,60,0.00,,,0.00,Wunderground v.1.15,2013-04-01 17:20:00,
2013-04-01 13:30:00,30.2,18.4,30.08,NW,318,13.0,15.0,61,0.00,,,0.00,Wunderground v.1.15,2013-04-01 17:30:00,
2013-04-01 13:35:00,30.3,17.3,30.08,WNW,289,13.0,15.0,58,0.00,,,0.00,Wunderground v.1.15,2013-04-01 17:35:00,
2013-04-01 13:40:00,30.5,17.5,30.08,WNW,300,13.0,13.0,58,0.00,,,0.00,Wunderground v.1.15,2013-04-01 17:40:00,
2013-04-01 13:45:00,30.6,17.2,30.08,NW,304,12.0,15.0,57,0.00,,,0.00,Wunderground v.1.15,2013-04-01 17:45:00,
2013-04-01 13:55:00,30.8,16.9,30.08,NW,309,15.0,22.0,56,0.00,,,0.00,Wunderground v.1.15,2013-04-01 17:55:00,
2013-04-01 14:00:00,31.3,16.1,30.08,WNW,294,14.0,14.0,53,0.00,,,0.00,Wunderground v.1.15,2013-04-01 18:00:00,
2013-04-01 14:10:00,31.4,17.5,30.08,WNW,282,13.0,14.0,56,0.00,,,0.00,Wunderground v.1.15,2013-04-01 18:10:00,
2013-04-01 14:15:00,31.0,17.5,30.08,WNW,292,12.0,14.0,57,0.00,,,0.00,Wunderground v.1.15,2013-04-01 18:15:00,
2013-04-01 14:20:00,31.4,17.1,30.08,West,276,12.0,15.0,55,0.00,,,0.00,Wunderground v.1.15,2013-04-01 18:20:00,
2013-04-01 14:25:00,31.1,16.4,30.08,West,271,13.0,16.0,54,0.00,,,0.00,Wunderground v.1.15,2013-04-01 18:25:00,
2013-04-01 14:35:00,30.8,16.5,30.09,WNW,290,14.0,15.0,55,0.00,,,0.00,Wunderground v.1.15,2013-04-01 18:35:00,
2013-04-01 14:45:00,31.1,17.6,30.09,West,271,14.0,14.0,57,0.00,,,0.00,Wunderground v.1.15,2013-04-01 18:45:00,
2013-04-01 14:55:00,30.1,17.5,30.09,WNW,294,14.0,14.0,59,0.00,,,0.00,Wunderground v.1.15,2013-04-01 18:55:00,
2013-04-01 15:05:00,30.3,17.7,30.09,NW,305,15.0,15.0,59,0.00,,,0.00,Wunderground v.1.15,2013-04-01 19:05:00,
2013-04-01 15:15:00,30.5,16.7,30.09,West,281,13.0,19.0,56,0.00,,,0.00,Wunderground v.1.15,2013-04-01 19:15:00,
2013-04-01 15:25:00,30.7,16.8,30.09,WNW,299,11.0,12.0,56,0.00,,,0.00,Wunderground v.1.15,2013-04-01 19:25:00,
2013-04-01 15:35:00,30.3,16.5,30.10,NW,313,14.0,17.0,56,0.00,,,0.00,Wunderground v.1.15,2013-04-01 19:35:00,
2013-04-01 15:45:00,30.0,17.0,30.10,NW,304,14.0,14.0,58,0.00,,,0.00,Wunderground v.1.15,2013-04-01 19:45:00,
2013-04-01 15:55:00,30.3,16.9,30.10,NW,305,14.0,15.0,57,0.00,,,0.00,Wunderground v.1.15,2013-04-01 19:55:00,
2013-04-01 16:05:00,30.1,16.3,30.10,WNW,300,13.0,14.0,56,0.00,,,0.00,Wunderground v.1.15,2013-04-01 20:05:00,
2013-04-01 16:15:00,30.5,17.1,30.10,WNW,298,12.0,13.0,57,0.00,,,0.00,Wunderground v.1.15,2013-04-01 20:15:00,
2013-04-01 16:25:00,31.2,16.5,30.10,WNW,290,11.0,11.0,54,0.00,,,0.00,Wunderground v.1.15,2013-04-01 20:25:00,
2013-04-01 16:30:00,30.6,15.5,30.10,WNW,294,13.0,14.0,53,0.00,,,0.00,Wunderground v.1.15,2013-04-01 20:30:00,
2013-04-01 16:40:00,29.8,16.4,30.10,WNW,288,13.0,17.0,57,0.00,,,0.00,Wunderground v.1.15,2013-04-01 20:40:00,
2013-04-01 16:50:00,29.7,15.5,30.11,WNW,284,14.0,14.0,55,0.00,,,0.00,Wunderground v.1.15,2013-04-01 20:50:00,
2013-04-01 17:00:00,29.6,15.8,30.10,NW,306,12.0,12.0,56,0.00,,,0.00,Wunderground v.1.15,2013-04-01 21:00:00,
2013-04-01 17:10:00,29.9,15.7,30.11,WNW,291,13.0,13.0,55,0.00,,,0.00,Wunderground v.1.15,2013-04-01 21:10:00,
2013-04-01 17:15:00,29.9,16.1,30.10,WSW,248,12.0,13.0,56,0.00,,,0.00,Wunderground v.1.15,2013-04-01 21:15:00,
2013-04-01 17:20:00,30.0,17.0,30.11,WNW,302,11.0,12.0,58,0.00,,,0.00,Wunderground v.1.15,2013-04-01 21:20:00,
2013-04-01 17:30:00,30.1,18.3,30.11,WNW,299,12.0,14.0,61,0.00,,,0.00,Wunderground v.1.15,2013-04-01 21:30:00,
2013-04-01 17:40:00,30.0,18.9,30.11,WNW,284,12.0,12.0,63,0.00,,,0.00,Wunderground v.1.15,2013-04-01 21:40:00,
2013-04-01 17:50:00,29.6,19.3,30.11,West,261,10.0,10.0,65,0.00,,,0.00,Wunderground v.1.15,2013-04-01 21:50:00,
2013-04-01 17:55:00,29.7,18.6,30.10,WNW,292,9.0,10.0,63,0.00,,,0.00,Wunderground v.1.15,2013-04-01 21:55:00,
2013-04-01 18:05:00,29.8,18.7,30.11,WNW,294,10.0,12.0,63,0.00,,,0.00,Wunderground v.1.15,2013-04-01 22:05:00,
2013-04-01 18:15:00,29.8,16.4,30.11,NW,313,10.0,10.0,57,0.00,,,0.00,Wunderground v.1.15,2013-04-01 22:15:00,
2013-04-01 18:25:00,30.2,16.0,30.11,WNW,289,11.0,11.0,55,0.00,,,0.00,Wunderground v.1.15,2013-04-01 22:25:00,
2013-04-01 18:35:00,30.6,16.7,30.11,West,281,12.0,16.0,56,0.00,,,0.00,Wunderground v.1.15,2013-04-01 22:35:00,
2013-04-01 18:45:00,31.3,17.4,30.11,WNW,302,10.0,11.0,56,0.00,,,0.00,Wunderground v.1.15,2013-04-01 22:45:00,
2013-04-01 18:55:00,29.9,18.1,30.11,NW,319,10.0,12.0,61,0.00,,,0.00,Wunderground v.1.15,2013-04-01 22:55:00,
2013-04-01 19:05:00,29.3,17.9,30.12,WNW,302,9.0,10.0,62,0.00,,,0.00,Wunderground v.1.15,2013-04-01 23:05:00,
2013-04-01 19:15:00,29.4,18.3,30.12,NW,307,6.0,7.0,63,0.00,,,0.00,Wunderground v.1.15,2013-04-01 23:15:00,
2013-04-01 19:25:00,30.0,18.2,30.12,WNW,301,8.0,8.0,61,0.00,,,0.00,Wunderground v.1.15,2013-04-01 23:25:00,
2013-04-01 19:30:00,30.2,18.4,30.12,NW,318,7.0,9.0,61,0.00,,,0.00,Wunderground v.1.15,2013-04-01 23:30:00,
2013-04-01 19:35:00,29.9,18.1,30.12,NNW,327,6.0,9.0,61,0.00,,,0.00,Wunderground v.1.15,2013-04-01 23:35:00,
2013-04-01 19:45:00,29.4,18.3,30.12,NW,319,7.0,8.0,63,0.00,,,0.00,Wunderground v.1.15,2013-04-01 23:45:00,
2013-04-01 19:55:00,29.1,17.7,30.12,NW,318,7.0,7.0,62,0.00,,,0.00,Wunderground v.1.15,2013-04-01 23:55:00,
2013-04-01 20:05:00,28.7,18.1,30.12,NW,315,5.0,6.0,64,0.00,,,0.00,Wunderground v.1.15,2013-04-02 00:05:00,
2013-04-01 20:15:00,28.4,18.1,30.11,North,32767,-999.0,0.0,65,0.00,,,0.00,Wunderground v.1.15,2013-04-02 00:15:00,
2013-04-01 20:20:00,28.4,18.1,30.11,North,32767,-999.0,0.0,65,0.00,,,0.00,Wunderground v.1.15,2013-04-02 00:20:00,
2013-04-01 20:25:00,28.3,18.0,30.12,North,32767,-999.0,0.0,65,0.00,,,0.00,Wunderground v.1.15,2013-04-02 00:25:00,
2013-04-01 20:35:00,28.1,17.8,30.11,North,32767,-999.0,0.0,65,0.00,,,0.00,Wunderground v.1.15,2013-04-02 00:35:00,
2013-04-01 20:45:00,28.0,17.7,30.12,North,32767,-999.0,0.0,65,0.00,,,0.00,Wunderground v.1.15,2013-04-02 00:45:00,
2013-04-01 20:50:00,28.0,18.1,30.12,North,32767,-999.0,0.0,66,0.00,,,0.00,Wunderground v.1.15,2013-04-02 00:50:00,
2013-04-01 20:55:00,27.9,18.0,30.12,North,32767,-999.0,0.0,66,0.00,,,0.00,Wunderground v.1.15,2013-04-02 00:55:00,
2013-04-01 21:05:00,27.7,17.8,30.12,North,32767,-999.0,0.0,66,0.00,,,0.00,Wunderground v.1.15,2013-04-02 01:05:00,
2013-04-01 21:15:00,27.7,18.2,30.12,North,32767,-999.0,0.0,67,0.00,,,0.00,Wunderground v.1.15,2013-04-02 01:15:00,
2013-04-01 21:25:00,27.8,18.3,30.12,North,32767,-999.0,0.0,67,0.00,,,0.00,Wunderground v.1.15,2013-04-02 01:25:00,
2013-04-01 21:35:00,27.9,18.4,30.12,North,32767,-999.0,0.0,67,0.00,,,0.00,Wunderground v.1.15,2013-04-02 01:35:00,
2013-04-01 21:45:00,28.1,18.5,30.12,North,32767,-999.0,0.0,67,0.00,,,0.00,Wunderground v.1.15,2013-04-02 01:45:00,
2013-04-01 21:50:00,28.1,18.5,30.13,North,32767,-999.0,0.0,67,0.00,,,0.00,Wunderground v.1.15,2013-04-02 01:50:00,
2013-04-01 21:55:00,28.0,20.1,30.13,North,32767,-999.0,0.0,72,0.00,,,0.00,Wunderground v.1.15,2013-04-02 01:55:00,
2013-04-01 22:05:00,27.9,18.4,30.13,North,32767,-999.0,0.0,67,0.00,,,0.00,Wunderground v.1.15,2013-04-02 02:05:00,
2013-04-01 22:15:00,27.8,18.6,30.13,North,32767,-999.0,0.0,68,0.00,,,0.00,Wunderground v.1.15,2013-04-02 02:15:00,
2013-04-01 22:20:00,27.8,18.6,30.13,North,32767,-999.0,0.0,68,0.00,,,0.00,Wunderground v.1.15,2013-04-02 02:20:00,
2013-04-01 22:25:00,27.8,18.9,30.13,North,32767,-999.0,0.0,69,0.00,,,0.00,Wunderground v.1.15,2013-04-02 02:25:00,
2013-04-01 22:35:00,27.7,18.8,30.13,North,32767,-999.0,0.0,69,0.00,,,0.00,Wunderground v.1.15,2013-04-02 02:35:00,
2013-04-01 22:45:00,27.8,18.9,30.13,North,32767,-999.0,0.0,69,0.00,,,0.00,Wunderground v.1.15,2013-04-02 02:45:00,
2013-04-01 22:55:00,27.8,18.9,30.13,North,32767,-999.0,0.0,69,0.00,,,0.00,Wunderground v.1.15,2013-04-02 02:55:00,
2013-04-01 23:05:00,27.4,19.2,30.13,North,32767,-999.0,0.0,71,0.00,,,0.00,Wunderground v.1.15,2013-04-02 03:05:00,
2013-04-01 23:10:00,27.2,19.0,30.13,North,32767,-999.0,0.0,71,0.00,,,0.00,Wunderground v.1.15,2013-04-02 03:10:00,
2013-04-01 23:20:00,27.2,19.4,30.13,North,32767,-999.0,0.0,72,0.00,,,0.00,Wunderground v.1.15,2013-04-02 03:20:00,
2013-04-01 23:25:00,27.2,19.4,30.13,North,32767,-999.0,0.0,72,0.00,,,0.00,Wunderground v.1.15,2013-04-02 03:25:00,
2013-04-01 23:30:00,27.2,19.4,30.13,North,32767,-999.0,0.0,72,0.00,,,0.00,Wunderground v.1.15,2013-04-02 03:30:00,
2013-04-01 23:40:00,27.0,19.5,30.13,North,32767,-999.0,0.0,73,0.00,,,0.00,Wunderground v.1.15,2013-04-02 03:40:00,
2013-04-01 23:45:00,27.0,19.5,30.13,North,32767,-999.0,0.0,73,0.00,,,0.00,Wunderground v.1.15,2013-04-02 03:45:00,
2013-04-01 23:55:00,26.9,19.4,30.13,North,32767,-999.0,0.0,73,0.00,,,0.00,Wunderground v.1.15,2013-04-02 03:55:00,